Time;durP1;ratioP1;P1;durP2;ratioP2;P2;SDS_P1;SDS_P2;PMS_P1;PMS_P2;Temp;Humidity;BMP_temperature;BMP_pressure;BME280_temperature;BME280_humidity;BME280_pressure;Samples;Min_cycle;Max_cycle;Signal;HPM_P1;HPM_P2
2021/12/05 10:06:53;;;;;;;16.33;3.20;;;20.10;48.40;;;;;;4788498;29;20289;-81
2021/12/05 10:38:33;;;;;;;22.95;4.53;;;20.30;48.20;;;;;;4716436;30;20182;-83
2021/12/05 10:44:01;;;;;;;21.50;4.07;;;20.40;49.00;;;;;;4710073;30;20331;-82
2021/12/05 10:46:29;;;;;;;20.77;4.63;;;20.30;48.90;;;;;;4687858;30;20215;-81
2021/12/05 10:49:00;;;;;;;18.63;4.05;;;20.50;48.20;;;;;;4675848;30;20361;-79
2021/12/05 10:51:30;;;;;;;20.00;4.10;;;20.50;48.40;;;;;;4699698;30;20233;-81
2021/12/05 10:54:08;;;;;;;13.95;5.00;;;20.40;48.60;;;;;;4705731;30;20285;-82
2021/12/05 10:56:37;;;;;;;23.63;4.60;;;20.40;48.30;;;;;;4671477;30;20213;-83
2021/12/05 10:59:21;;;;;;;15.73;4.47;;;20.40;48.30;;;;;;4669306;30;20195;-79
2021/12/05 11:02:00;;;;;;;21.90;4.53;;;20.40;48.10;;;;;;4672366;30;20263;-80
2021/12/05 11:04:49;;;;;;;22.52;4.70;;;20.40;47.80;;;;;;4656189;30;20239;-81
2021/12/05 11:07:38;;;;;;;27.40;5.35;;;20.30;47.40;;;;;;4644180;30;20199;-80
2021/12/05 11:10:28;;;;;;;32.13;5.82;;;20.30;47.70;;;;;;4705941;30;20240;-79
2021/12/05 11:12:54;;;;;;;33.08;5.32;;;20.30;47.70;;;;;;4708036;30;20222;-78
2021/12/05 11:15:21;;;;;;;23.33;4.75;;;20.40;47.40;;;;;;4705285;30;20247;-81
2021/12/05 11:17:50;;;;;;;29.80;4.72;;;20.30;47.30;;;;;;4706778;30;20338;-82
2021/12/05 11:20:29;;;;;;;26.77;5.05;;;20.30;47.50;;;;;;4705943;30;20229;-78
2021/12/05 11:22:57;;;;;;;41.80;5.47;;;20.30;48.00;;;;;;4693258;30;20222;-84
2021/12/05 11:25:37;;;;;;;;;;;;;;;;;;;;;
2021/12/05 11:28:14;;;;;;;33.42;5.50;;;20.30;47.60;;;;;;4722438;30;20290;-79
2021/12/05 11:31:09;;;;;;;22.58;5.03;;;20.40;48.20;;;;;;4756042;30;20263;-84
2021/12/05 11:33:53;;;;;;;29.23;4.82;;;20.30;47.80;;;;;;4740004;30;20220;-81
2021/12/05 11:36:23;;;;;;;24.27;5.00;;;20.30;48.20;;;;;;4747652;30;20261;-82
2021/12/05 11:38:49;;;;;;;20.15;5.28;;;20.40;47.80;;;;;;4756171;30;20164;-81
2021/12/05 11:41:20;;;;;;;22.90;4.75;;;20.40;47.10;;;;;;4764462;30;20243;-84
2021/12/05 11:44:00;;;;;;;22.83;4.57;;;20.50;47.40;;;;;;4721746;30;20284;-82
2021/12/05 11:46:54;;;;;;;;;;;;;;;;;;;;;
2021/12/05 11:49:59;;;;;;;23.23;4.45;;;20.50;48.00;;;;;;4702202;30;20377;-84
2021/12/05 11:52:30;;;;;;;19.83;4.32;;;20.50;47.30;;;;;;4686842;30;20246;-82
2021/12/05 11:55:09;;;;;;;;;;;;;;;;;;;;;
2021/12/05 11:58:05;;;;;;;20.55;4.53;;;20.50;47.10;;;;;;4688620;30;20267;-84
2021/12/05 12:00:42;;;;;;;21.83;4.65;;;20.60;47.40;;;;;;4683563;30;20218;-86
2021/12/05 12:03:33;;;;;;;19.02;4.35;;;20.50;47.60;;;;;;4674187;30;20656;-83
2021/12/05 12:06:31;;;;;;;16.17;4.13;;;20.50;47.80;;;;;;4674365;30;20236;-84
2021/12/05 12:09:17;;;;;;;16.55;4.45;;;20.50;47.50;;;;;;4690421;30;20212;-84
2021/12/05 12:11:43;;;;;;;16.67;4.03;;;20.40;47.50;;;;;;4676285;30;20314;-82
2021/12/05 12:14:08;;;;;;;22.88;4.35;;;20.40;47.80;;;;;;4701432;30;20256;-83
2021/12/05 12:16:38;;;;;;;20.42;4.53;;;20.40;47.20;;;;;;4740466;30;20181;-83
2021/12/05 12:19:09;;;;;;;16.30;4.05;;;20.40;47.40;;;;;;4742920;29;20276;-83
2021/12/05 12:35:25;;;;;;;24.80;4.88;;;20.40;46.30;;;;;;4775201;30;20187;-81
2021/12/05 12:38:10;;;;;;;34.20;4.82;;;20.40;46.60;;;;;;4791327;30;20191;-85
2021/12/05 12:40:44;;;;;;;30.17;4.30;;;20.40;47.50;;;;;;4786270;29;20311;-81
2021/12/05 12:43:58;;;;;;;17.17;4.65;;;20.40;47.10;;;;;;4800040;29;20170;-83
2021/12/05 12:46:54;;;;;;;25.05;4.90;;;20.40;48.20;;;;;;4800060;29;20170;-84
2021/12/05 12:53:21;;;;;;;25.80;4.78;;;20.40;47.10;;;;;;4769876;30;20199;-83
2021/12/05 12:55:59;;;;;;;26.20;4.95;;;20.40;48.00;;;;;;4740994;30;20231;-79
2021/12/05 12:58:46;;;;;;;27.90;5.10;;;20.50;47.60;;;;;;4727699;30;20659;-81
2021/12/05 13:02:16;;;;;;;29.02;4.70;;;20.50;48.10;;;;;;4758150;30;20286;-81
2021/12/05 13:10:09;;;;;;;25.35;4.25;;;20.70;47.80;;;;;;4741432;30;20184;-82
2021/12/05 13:13:02;;;;;;;;;;;;;;;;;;;;;
2021/12/05 13:15:35;;;;;;;20.90;4.68;;;20.70;48.00;;;;;;4727219;30;20275;-83
2021/12/05 13:18:25;;;;;;;18.02;4.50;;;20.60;47.30;;;;;;4741227;30;20240;-82
2021/12/05 13:21:36;;;;;;;19.98;3.97;;;20.70;47.80;;;;;;4802520;29;20197;-83
2021/12/05 13:24:56;;;;;;;22.15;4.32;;;20.60;47.70;;;;;;4724786;30;20238;-80
2021/12/05 13:27:52;;;;;;;22.60;4.90;;;20.70;47.90;;;;;;4650754;30;20246;-80
2021/12/05 13:30:44;;;;;;;23.63;4.72;;;20.70;48.10;;;;;;4626730;30;20237;-81
2021/12/05 13:33:16;;;;;;;19.63;4.50;;;20.70;47.30;;;;;;4645482;30;20281;-79
2021/12/05 13:35:48;;;;;;;21.67;4.30;;;20.60;47.80;;;;;;4627560;30;20245;-82
2021/12/05 13:38:36;;;;;;;17.48;4.15;;;20.60;47.30;;;;;;4633890;30;20216;-79
2021/12/05 13:41:12;;;;;;;17.98;4.40;;;20.60;46.90;;;;;;4633061;30;20201;-80
2021/12/05 13:43:38;;;;;;;20.08;4.55;;;20.70;47.10;;;;;;4632587;30;20192;-81
2021/12/05 13:46:39;;;;;;;17.77;4.28;;;20.70;47.40;;;;;;4635976;30;20204;-80
2021/12/05 13:49:35;;;;;;;21.20;4.15;;;20.70;47.90;;;;;;4631102;30;20209;-83
2021/12/05 13:52:30;;;;;;;28.05;4.53;;;20.70;47.50;;;;;;4650517;30;20231;-82
2021/12/05 13:55:36;;;;;;;21.25;4.03;;;20.70;48.10;;;;;;4702643;30;20209;-82
2021/12/05 13:58:45;;;;;;;19.40;4.13;;;20.80;48.10;;;;;;4707870;30;20209;-81
2021/12/05 14:01:21;;;;;;;29.52;4.68;;;20.80;48.00;;;;;;4722546;30;20200;-82
2021/12/05 14:04:08;;;;;;;34.72;5.30;;;20.80;48.10;;;;;;4736199;30;20263;-83
2021/12/05 14:07:04;;;;;;;28.83;4.95;;;20.80;48.90;;;;;;4758073;30;20301;-84
2021/12/05 14:09:43;;;;;;;29.30;5.32;;;20.80;48.10;;;;;;4757939;30;20342;-84
2021/12/05 14:12:18;;;;;;;30.58;4.53;;;20.70;48.50;;;;;;4722700;30;20328;-79
2021/12/05 14:14:59;;;;;;;28.98;4.60;;;20.80;47.90;;;;;;4739025;30;20200;-81
2021/12/05 14:17:31;;;;;;;29.38;5.28;;;20.80;48.60;;;;;;4742437;30;20197;-85
2021/12/05 14:20:05;;;;;;;28.10;4.60;;;20.90;47.10;;;;;;4696566;30;20190;-83
2021/12/05 14:22:58;;;;;;;26.02;4.50;;;20.90;47.80;;;;;;4673696;30;20263;-84
2021/12/05 14:25:29;;;;;;;21.85;4.55;;;20.90;47.60;;;;;;4673711;30;20224;-86
2021/12/05 14:28:09;;;;;;;18.67;4.13;;;20.90;47.40;;;;;;4676556;30;20199;-82
2021/12/05 14:30:45;;;;;;;18.58;4.35;;;20.90;47.20;;;;;;4648248;30;20256;-85
2021/12/05 14:33:20;;;;;;;22.77;4.57;;;20.90;47.50;;;;;;4675619;30;20187;-83
2021/12/05 14:35:48;;;;;;;22.50;4.47;;;20.90;46.60;;;;;;4677729;30;20194;-84
2021/12/05 14:38:42;;;;;;;;;;;;;;;;;;;;;
2021/12/05 14:41:37;;;;;;;23.98;4.40;;;20.90;47.90;;;;;;4692154;30;20223;-82
2021/12/05 14:44:04;;;;;;;33.55;4.75;;;20.80;48.00;;;;;;4724450;30;20190;-84
2021/12/05 14:46:47;;;;;;;21.60;4.43;;;20.80;48.10;;;;;;4720335;30;20228;-83
2021/12/05 14:49:14;;;;;;;23.08;4.55;;;20.80;47.50;;;;;;4723667;30;20218;-82
2021/12/05 14:51:41;;;;;;;34.38;4.90;;;20.80;47.40;;;;;;4727481;30;20319;-81
2021/12/05 14:54:11;;;;;;;27.90;4.53;;;20.80;47.70;;;;;;4741858;30;20223;-82
2021/12/05 14:56:42;;;;;;;22.52;5.15;;;20.80;47.30;;;;;;4731341;30;20202;-82
2021/12/05 14:59:11;;;;;;;22.45;4.53;;;20.80;47.50;;;;;;4744289;30;20220;-80
2021/12/05 15:01:40;;;;;;;22.95;4.80;;;20.80;47.50;;;;;;4724440;30;20203;-84
2021/12/05 15:04:07;;;;;;;21.17;4.55;;;20.80;47.80;;;;;;4784157;30;20246;-83
2021/12/05 15:06:41;;;;;;;41.20;4.93;;;20.90;47.40;;;;;;4823693;29;20664;-85
2021/12/05 15:09:28;;;;;;;45.20;5.78;;;20.90;48.50;;;;;;4803390;29;20233;-79
2021/12/05 15:12:09;;;;;;;40.45;5.55;;;21.00;47.90;;;;;;4820770;29;20201;-81
2021/12/05 15:14:39;;;;;;;28.70;4.78;;;21.00;47.30;;;;;;4795874;30;20195;-81
2021/12/05 15:17:29;;;;;;;27.98;4.78;;;20.90;48.30;;;;;;4751947;30;20576;-83
2021/12/05 15:20:04;;;;;;;32.90;5.25;;;20.90;47.90;;;;;;4753778;30;20191;-83
2021/12/05 15:22:30;;;;;;;28.48;4.65;;;20.90;47.70;;;;;;4738438;30;20213;-83
2021/12/05 15:25:00;;;;;;;30.90;4.15;;;20.90;47.20;;;;;;4765421;30;20710;-81
2021/12/05 15:27:30;;;;;;;25.90;5.00;;;20.90;47.20;;;;;;4753229;30;20243;-82
2021/12/05 15:30:02;;;;;;;38.03;4.88;;;20.90;47.60;;;;;;4780650;30;20191;-83
2021/12/05 15:32:32;;;;;;;21.52;4.68;;;20.90;47.50;;;;;;4772902;30;20227;-81
2021/12/05 15:35:01;;;;;;;35.03;4.65;;;20.90;46.80;;;;;;4751864;29;20192;-83
2021/12/05 15:37:28;;;;;;;19.70;4.75;;;20.90;47.70;;;;;;4784558;29;20274;-82
2021/12/05 15:40:04;;;;;;;29.15;4.93;;;20.90;48.30;;;;;;4753067;30;20191;-82
2021/12/05 15:42:37;;;;;;;24.65;4.97;;;20.90;48.00;;;;;;4782005;30;20174;-82
2021/12/05 15:45:23;;;;;;;26.65;4.70;;;20.90;47.40;;;;;;4790933;29;20276;-80
2021/12/05 15:47:49;;;;;;;21.15;3.83;;;20.80;47.60;;;;;;4775750;30;20219;-80
2021/12/05 15:50:18;;;;;;;23.50;4.28;;;20.80;47.10;;;;;;4763693;30;20188;-79
2021/12/05 15:53:20;;;;;;;24.65;4.72;;;20.80;47.20;;;;;;4775782;30;20165;-82
2021/12/05 15:55:57;;;;;;;28.75;4.80;;;20.90;47.00;;;;;;4792823;29;20658;-80
2021/12/05 15:58:40;;;;;;;20.17;4.40;;;20.90;47.20;;;;;;4761544;30;20217;-80
2021/12/05 16:01:11;;;;;;;21.27;4.03;;;20.80;47.50;;;;;;4747582;30;20297;-79
2021/12/05 16:03:49;;;;;;;30.92;4.70;;;20.90;47.10;;;;;;4749553;30;20265;-81
2021/12/05 16:06:19;;;;;;;23.20;4.30;;;20.80;47.60;;;;;;4730363;30;20346;-84
2021/12/05 16:08:51;;;;;;;23.75;3.83;;;20.70;48.00;;;;;;4730825;30;20304;-83
2021/12/05 16:11:44;;;;;;;23.77;4.97;;;20.70;46.60;;;;;;4728967;30;20240;-81
2021/12/05 16:14:35;;;;;;;25.30;4.93;;;20.60;47.60;;;;;;4707242;30;20697;-82
2021/12/05 16:17:15;;;;;;;30.52;4.90;;;20.60;47.30;;;;;;4708712;30;20544;-83
2021/12/05 16:20:11;;;;;;;27.20;4.88;;;20.60;47.10;;;;;;4698934;30;20241;-80
2021/12/05 16:22:55;;;;;;;22.15;4.80;;;20.60;46.50;;;;;;4706235;30;20198;-82
2021/12/05 16:25:21;;;;;;;25.70;4.78;;;20.40;47.90;;;;;;4731327;30;20624;-80
2021/12/05 16:27:49;;;;;;;27.00;5.05;;;20.30;47.50;;;;;;4741462;30;20216;-82
2021/12/05 16:30:34;;;;;;;19.65;4.45;;;20.30;48.50;;;;;;4732404;30;20175;-82
2021/12/05 16:33:02;;;;;;;25.38;4.43;;;20.40;47.30;;;;;;4928204;24;20584;-80
2021/12/05 16:46:21;;;;;;;18.58;4.03;;;20.20;47.50;;;;;;5357877;24;20286;-83
2021/12/05 16:48:48;;;;;;;19.05;4.18;;;20.20;48.60;;;;;;4803561;29;20193;-83
2021/12/05 16:51:23;;;;;;;22.42;4.68;;;20.20;48.10;;;;;;4784646;29;20210;-85
2021/12/05 16:53:51;;;;;;;21.85;4.40;;;20.20;47.80;;;;;;4800008;29;20193;-84
2021/12/05 16:56:38;;;;;;;25.15;4.53;;;20.20;48.10;;;;;;4799179;29;20193;-83
2021/12/05 16:59:06;;;;;;;23.05;4.43;;;20.20;47.70;;;;;;4811231;29;20166;-83
2021/12/05 17:01:32;;;;;;;26.27;4.15;;;20.10;47.30;;;;;;4812198;29;20242;-83
2021/12/05 17:03:58;;;;;;;37.65;5.22;;;20.10;48.10;;;;;;4816420;29;20192;-83
2021/12/05 17:06:57;;;;;;;36.40;5.25;;;20.00;48.90;;;;;;4801540;29;20170;-82
2021/12/05 17:09:22;;;;;;;40.05;5.28;;;20.00;48.60;;;;;;4804329;29;20194;-83
2021/12/05 17:11:51;;;;;;;23.08;4.57;;;20.00;49.40;;;;;;4802253;29;20201;-83
2021/12/05 17:14:20;;;;;;;36.15;5.40;;;20.00;49.50;;;;;;4803426;29;20178;-84
2021/12/05 17:16:46;;;;;;;25.80;5.05;;;20.00;49.80;;;;;;4815581;29;20190;-82
2021/12/05 17:19:13;;;;;;;34.63;5.40;;;20.00;48.80;;;;;;4810932;29;20174;-81
2021/12/05 17:22:02;;;;;;;32.38;5.43;;;20.10;48.80;;;;;;4794725;29;20189;-84
2021/12/05 17:24:33;;;;;;;28.85;4.90;;;20.10;49.10;;;;;;4805517;29;20250;-84
2021/12/05 17:27:02;;;;;;;32.42;4.45;;;20.00;48.70;;;;;;4805415;29;20204;-84
2021/12/05 17:29:33;;;;;;;22.23;4.82;;;20.00;48.50;;;;;;4804326;29;20178;-82
2021/12/05 17:32:15;;;;;;;20.30;4.50;;;20.00;49.10;;;;;;4787817;29;20205;-83
2021/12/05 17:34:49;;;;;;;24.48;4.20;;;19.90;48.80;;;;;;4781969;30;20235;-84
2021/12/05 17:37:20;;;;;;;22.27;4.75;;;20.00;49.00;;;;;;4780573;30;20171;-84
2021/12/05 17:39:46;;;;;;;18.50;4.22;;;20.00;49.10;;;;;;4764402;30;20599;-86
2021/12/05 17:42:15;;;;;;;19.10;4.53;;;19.90;48.50;;;;;;4776547;30;20183;-84
2021/12/05 17:44:41;;;;;;;21.27;4.60;;;20.00;48.60;;;;;;4777231;30;20225;-84
2021/12/05 17:47:08;;;;;;;22.02;4.50;;;20.00;48.20;;;;;;4759401;30;20329;-83
2021/12/05 17:49:35;;;;;;;27.10;4.60;;;19.90;49.50;;;;;;4761929;30;20267;-83
2021/12/05 17:52:08;;;;;;;18.80;4.35;;;19.90;49.10;;;;;;4790858;29;20249;-82
2021/12/05 17:54:48;;;;;;;24.95;4.70;;;19.90;48.60;;;;;;4776836;30;20191;-83
2021/12/05 17:57:18;;;;;;;22.55;4.40;;;19.90;48.80;;;;;;4763463;30;20238;-83
2021/12/05 18:00:00;;;;;;;18.42;4.15;;;19.90;48.90;;;;;;4763245;30;20203;-83
2021/12/05 18:02:47;;;;;;;23.25;4.40;;;19.90;48.30;;;;;;4779842;30;20193;-84
2021/12/05 18:05:17;;;;;;;20.25;3.75;;;19.90;48.20;;;;;;4789007;29;20297;-83
2021/12/05 18:07:47;;;;;;;21.10;3.80;;;19.90;48.90;;;;;;4802675;29;20174;-84
2021/12/05 18:10:13;;;;;;;18.23;4.13;;;19.90;47.40;;;;;;4818292;29;20158;-84
2021/12/05 18:12:50;;;;;;;21.63;4.55;;;19.90;47.60;;;;;;4799949;29;20170;-84
2021/12/05 18:15:23;;;;;;;25.02;4.70;;;19.90;48.00;;;;;;4782979;29;20258;-84
2021/12/05 18:17:50;;;;;;;34.80;4.97;;;19.90;48.20;;;;;;4801673;29;20226;-84
2021/12/05 18:20:19;;;;;;;31.90;4.95;;;19.80;48.00;;;;;;4784865;29;20162;-83
2021/12/05 18:22:45;;;;;;;30.15;4.95;;;19.90;47.60;;;;;;4798286;29;20165;-83
2021/12/05 18:25:12;;;;;;;29.80;4.78;;;19.90;47.90;;;;;;4798663;29;20261;-83
2021/12/05 18:27:46;;;;;;;29.63;4.97;;;19.80;48.00;;;;;;4813416;29;20634;-84
2021/12/05 18:30:13;;;;;;;28.33;4.40;;;19.80;47.80;;;;;;4798044;29;20163;-83
2021/12/05 18:32:38;;;;;;;25.02;4.30;;;19.90;48.10;;;;;;4798854;29;20210;-84
2021/12/05 18:35:04;;;;;;;25.77;4.50;;;19.80;47.90;;;;;;4796650;29;20192;-84
2021/12/05 18:37:30;;;;;;;26.98;4.40;;;19.80;48.00;;;;;;4797330;29;20634;-84
2021/12/05 18:39:57;;;;;;;36.92;4.93;;;19.80;47.30;;;;;;4798383;29;20284;-84
2021/12/05 18:42:24;;;;;;;22.52;4.50;;;19.80;48.50;;;;;;4782499;29;20189;-85
2021/12/05 18:45:00;;;;;;;21.10;4.65;;;19.80;48.40;;;;;;4784993;29;20594;-84
2021/12/05 18:47:29;;;;;;;33.03;5.05;;;19.80;48.40;;;;;;4785281;29;20204;-84
2021/12/05 18:49:55;;;;;;;26.77;4.40;;;19.80;48.80;;;;;;4798931;29;20199;-84
2021/12/05 18:52:24;;;;;;;28.35;4.93;;;19.80;48.70;;;;;;4798366;29;20682;-85
2021/12/05 18:54:52;;;;;;;25.73;4.35;;;19.80;48.80;;;;;;4798731;29;20178;-84
2021/12/05 18:57:23;;;;;;;22.70;4.10;;;19.80;48.40;;;;;;4799501;29;20253;-84
2021/12/05 19:00:06;;;;;;;27.35;4.72;;;19.80;48.50;;;;;;4785121;29;20598;-83
2021/12/05 19:05:32;;;;;;;24.08;4.22;;;19.80;48.40;;;;;;4806972;29;20537;-84
2021/12/05 19:08:30;;;;;;;22.60;3.90;;;19.80;48.60;;;;;;4780616;30;20196;-84
2021/12/05 19:13:28;;;;;;;24.33;4.50;;;19.80;48.70;;;;;;4769652;30;20290;-83
2021/12/05 19:15:54;;;;;;;24.25;4.35;;;19.70;48.70;;;;;;4777560;30;20168;-84
2021/12/05 19:18:20;;;;;;;26.58;5.10;;;19.70;49.10;;;;;;4761059;30;20306;-84
2021/12/05 19:20:48;;;;;;;13.95;3.90;;;19.70;49.50;;;;;;4746159;30;20179;-84
2021/12/05 19:23:14;;;;;;;17.63;4.28;;;19.70;49.10;;;;;;4790253;30;20200;-84
2021/12/05 19:25:41;;;;;;;27.08;4.45;;;19.70;49.20;;;;;;4761125;30;20654;-84
2021/12/05 19:28:07;;;;;;;20.58;4.60;;;19.70;48.70;;;;;;4761281;30;20191;-84
2021/12/05 19:30:37;;;;;;;17.13;4.15;;;19.60;48.70;;;;;;4761582;30;20526;-84
2021/12/05 19:33:04;;;;;;;18.83;4.45;;;19.70;48.70;;;;;;4790603;30;20270;-83
2021/12/05 19:35:39;;;;;;;16.55;4.35;;;19.70;48.90;;;;;;4760434;30;20160;-83
2021/12/05 19:38:05;;;;;;;20.73;4.03;;;19.70;49.10;;;;;;4780957;29;20223;-83
2021/12/05 19:40:37;;;;;;;19.83;4.13;;;19.70;49.50;;;;;;4782170;29;20174;-83
2021/12/05 19:43:10;;;;;;;15.75;4.03;;;19.70;48.60;;;;;;4796787;29;20166;-84
2021/12/05 19:45:36;;;;;;;22.08;4.55;;;19.70;48.30;;;;;;4811261;29;20226;-84
2021/12/05 19:48:02;;;;;;;20.67;4.22;;;19.70;48.30;;;;;;4811657;29;20166;-83
2021/12/05 19:50:41;;;;;;;17.98;4.30;;;19.70;48.50;;;;;;4811564;29;20178;-83
2021/12/05 19:53:06;;;;;;;25.20;4.63;;;19.70;49.30;;;;;;4774601;30;20192;-84
2021/12/05 19:55:32;;;;;;;19.30;4.05;;;19.60;48.30;;;;;;4774797;30;20187;-83
2021/12/05 19:57:59;;;;;;;17.27;4.30;;;19.60;48.20;;;;;;4759907;30;20187;-83
2021/12/05 20:00:25;;;;;;;18.20;4.20;;;19.70;48.00;;;;;;4774692;30;20180;-83
2021/12/05 20:02:51;;;;;;;15.73;3.90;;;19.70;48.40;;;;;;4760062;30;20195;-84
2021/12/05 20:05:24;;;;;;;21.00;4.35;;;19.60;48.30;;;;;;4759376;30;20237;-83
2021/12/05 20:07:59;;;;;;;22.70;4.30;;;19.60;48.70;;;;;;4759887;30;20232;-83
2021/12/05 20:10:30;;;;;;;16.10;3.92;;;19.60;48.70;;;;;;4759423;30;20171;-83
2021/12/05 20:12:57;;;;;;;13.55;4.07;;;19.60;48.30;;;;;;4759352;30;20195;-83
2021/12/05 20:15:24;;;;;;;16.40;4.07;;;19.60;48.50;;;;;;4759485;30;20188;-83
2021/12/05 20:17:50;;;;;;;18.75;4.50;;;19.60;49.10;;;;;;4759764;30;20198;-83
2021/12/05 20:20:17;;;;;;;18.25;3.67;;;19.60;48.70;;;;;;4759022;30;20590;-83
2021/12/05 20:26:05;;;;;;;13.93;3.92;;;19.60;47.90;;;;;;4827534;29;20589;-84
2021/12/05 20:28:31;;;;;;;17.02;4.30;;;19.60;48.70;;;;;;4810772;29;20194;-83
2021/12/05 20:30:57;;;;;;;19.13;4.35;;;19.60;48.30;;;;;;4810349;29;20197;-84
2021/12/05 20:33:23;;;;;;;14.73;3.72;;;19.50;48.40;;;;;;4810183;29;20186;-83
2021/12/05 20:35:49;;;;;;;11.90;3.85;;;19.50;48.80;;;;;;4795300;29;20585;-83
2021/12/05 20:38:14;;;;;;;13.02;4.00;;;19.50;48.60;;;;;;4795331;29;20219;-83
2021/12/05 20:40:49;;;;;;;15.25;3.97;;;19.50;48.50;;;;;;4810226;29;20166;-83
2021/12/05 20:43:16;;;;;;;16.45;3.80;;;19.50;48.70;;;;;;4794992;29;20637;-83
2021/12/05 20:45:42;;;;;;;18.23;4.05;;;19.50;49.10;;;;;;4809928;29;20274;-83
2021/12/05 20:48:22;;;;;;;16.02;4.07;;;19.50;48.60;;;;;;4810098;29;20178;-83
2021/12/05 20:50:47;;;;;;;13.15;3.85;;;19.50;48.90;;;;;;4780296;29;20209;-84
2021/12/05 20:53:14;;;;;;;14.05;3.90;;;19.50;48.20;;;;;;4795053;29;20583;-83
2021/12/05 20:55:43;;;;;;;16.02;3.88;;;19.60;48.30;;;;;;4779982;29;20648;-83
2021/12/05 20:58:09;;;;;;;16.65;4.05;;;19.50;48.20;;;;;;4779936;29;20261;-83
2021/12/05 21:00:43;;;;;;;17.67;3.97;;;19.50;47.60;;;;;;4795037;29;20284;-83
2021/12/05 21:03:09;;;;;;;18.13;4.32;;;19.50;48.40;;;;;;4795165;29;20161;-84
2021/12/05 21:05:36;;;;;;;15.05;4.00;;;19.50;48.10;;;;;;4794585;29;20171;-83
2021/12/05 21:08:03;;;;;;;13.65;4.00;;;19.50;48.30;;;;;;4795483;29;20170;-84
2021/12/05 21:10:32;;;;;;;15.27;4.07;;;19.50;47.60;;;;;;4794806;29;20194;-83
2021/12/05 21:13:11;;;;;;;15.40;4.00;;;19.50;49.60;;;;;;4809428;29;20166;-83
2021/12/05 21:15:41;;;;;;;17.88;4.05;;;19.50;49.60;;;;;;4809418;29;20249;-83
2021/12/05 21:18:10;;;;;;;16.42;3.70;;;19.50;49.80;;;;;;4779928;29;20272;-83
2021/12/05 21:20:39;;;;;;;20.48;4.50;;;19.40;49.90;;;;;;4787215;30;20274;-83
2021/12/05 21:23:05;;;;;;;18.83;3.85;;;19.40;50.10;;;;;;4772147;30;20569;-83
2021/12/05 21:25:40;;;;;;;13.02;4.00;;;19.40;50.20;;;;;;4787177;30;20191;-83
2021/12/05 21:28:05;;;;;;;15.25;4.32;;;19.30;50.30;;;;;;4771415;30;20277;-83
2021/12/05 21:30:31;;;;;;;13.13;3.50;;;19.30;50.30;;;;;;4772061;30;20230;-83
2021/12/05 21:32:57;;;;;;;9.68;3.63;;;19.30;50.30;;;;;;4772297;30;20183;-83
2021/12/05 21:35:24;;;;;;;11.02;3.30;;;19.30;50.40;;;;;;4771801;30;20184;-83
2021/12/05 21:37:50;;;;;;;15.68;4.72;;;19.30;50.40;;;;;;4757171;30;20300;-83
2021/12/05 21:40:20;;;;;;;13.38;4.15;;;19.30;50.50;;;;;;4771887;30;20210;-83
2021/12/05 21:42:46;;;;;;;15.35;3.90;;;19.30;50.50;;;;;;4786469;30;20171;-83
2021/12/05 21:45:17;;;;;;;15.65;3.80;;;19.30;50.50;;;;;;4771363;30;20220;-84
2021/12/05 21:47:43;;;;;;;13.10;3.90;;;19.30;50.40;;;;;;4756758;30;20195;-83
2021/12/05 21:50:09;;;;;;;12.27;3.67;;;19.20;50.30;;;;;;4786538;30;20180;-84
2021/12/05 21:52:38;;;;;;;11.43;3.38;;;19.20;50.30;;;;;;4807239;29;20308;-83
2021/12/05 21:55:07;;;;;;;12.57;3.50;;;19.20;50.30;;;;;;4793517;29;20602;-83
2021/12/05 21:57:33;;;;;;;13.10;3.70;;;19.20;50.30;;;;;;4793517;29;20234;-83
2021/12/05 21:59:59;;;;;;;16.20;3.78;;;19.20;50.30;;;;;;4778351;29;20621;-83
2021/12/05 22:02:31;;;;;;;15.82;4.00;;;19.20;50.30;;;;;;4808626;29;20197;-83
2021/12/05 22:04:56;;;;;;;13.15;3.47;;;19.20;50.30;;;;;;4793161;29;20658;-84
2021/12/05 22:07:28;;;;;;;13.50;3.83;;;19.20;50.10;;;;;;4808367;29;20194;-83
2021/12/05 22:09:54;;;;;;;11.10;4.00;;;19.20;50.30;;;;;;4778999;29;20226;-83
2021/12/05 22:12:20;;;;;;;12.23;3.53;;;19.20;50.30;;;;;;4793110;29;20197;-83
2021/12/05 22:14:45;;;;;;;11.60;3.90;;;19.20;50.20;;;;;;4808400;29;20177;-83
2021/12/05 22:17:17;;;;;;;18.33;4.32;;;19.20;50.30;;;;;;4793478;29;20170;-83
2021/12/05 22:19:50;;;;;;;11.68;3.58;;;19.20;50.30;;;;;;4807997;29;20556;-83
2021/12/05 22:22:25;;;;;;;15.32;3.97;;;19.20;50.30;;;;;;4808374;29;20162;-83
2021/12/05 22:24:50;;;;;;;15.98;4.30;;;19.10;50.40;;;;;;4808375;29;20648;-83
2021/12/05 22:27:17;;;;;;;18.00;3.78;;;19.10;50.40;;;;;;4824312;29;20158;-83
2021/12/05 22:29:48;;;;;;;8.85;3.72;;;19.10;50.40;;;;;;4824227;29;20159;-83
2021/12/05 22:32:29;;;;;;;11.98;3.40;;;19.20;50.40;;;;;;4793142;29;20673;-83
2021/12/05 22:35:12;;;;;;;17.05;4.18;;;19.10;50.40;;;;;;4778365;29;20180;-83
2021/12/05 22:37:38;;;;;;;12.18;4.50;;;19.10;50.50;;;;;;4808279;29;20179;-83
2021/12/05 22:40:05;;;;;;;11.90;3.83;;;19.10;50.50;;;;;;4796229;29;20162;-83
2021/12/05 22:42:30;;;;;;;10.75;3.47;;;19.10;50.40;;;;;;4797096;29;20209;-83
2021/12/05 22:44:59;;;;;;;12.85;3.60;;;19.10;50.60;;;;;;4796466;29;20656;-83
2021/12/05 22:47:25;;;;;;;10.13;4.18;;;19.10;50.50;;;;;;4811225;29;20222;-83
2021/12/05 22:50:00;;;;;;;14.88;4.03;;;19.10;50.60;;;;;;4782094;29;20178;-83
2021/12/05 22:52:25;;;;;;;11.18;3.78;;;19.10;50.60;;;;;;4781961;29;20599;-83
2021/12/05 22:54:55;;;;;;;15.52;3.83;;;19.10;50.60;;;;;;4796501;29;20224;-83
2021/12/05 22:57:21;;;;;;;14.48;3.75;;;19.10;50.70;;;;;;4811290;29;20197;-84
2021/12/05 22:59:50;;;;;;;14.75;4.13;;;19.00;50.50;;;;;;4781644;29;20201;-83
2021/12/05 23:02:15;;;;;;;13.68;3.45;;;19.10;50.60;;;;;;4796107;29;20641;-83
2021/12/05 23:04:42;;;;;;;10.80;3.50;;;19.10;50.70;;;;;;4796007;29;20247;-83
2021/12/05 23:07:08;;;;;;;16.60;4.28;;;19.00;50.60;;;;;;4827122;29;20528;-83
2021/12/05 23:09:34;;;;;;;8.07;3.42;;;19.00;50.50;;;;;;4796368;29;20170;-83
2021/12/05 23:12:07;;;;;;;15.90;3.92;;;19.00;50.60;;;;;;4796091;29;20208;-83
2021/12/05 23:14:37;;;;;;;10.95;4.00;;;19.00;50.60;;;;;;4795968;29;20194;-83
2021/12/05 23:17:03;;;;;;;11.55;3.80;;;19.00;50.30;;;;;;4811107;29;20162;-83
2021/12/05 23:19:29;;;;;;;13.63;3.67;;;19.00;50.70;;;;;;4827036;29;20207;-83
2021/12/05 23:21:58;;;;;;;14.45;3.33;;;19.00;50.60;;;;;;4795906;29;20170;-83
2021/12/05 23:24:27;;;;;;;12.02;3.60;;;19.00;50.50;;;;;;4795957;29;20202;-83
2021/12/05 23:26:53;;;;;;;12.07;3.90;;;19.00;50.60;;;;;;4781716;29;20197;-83
2021/12/05 23:29:23;;;;;;;11.57;3.72;;;19.00;50.60;;;;;;4795646;29;20178;-83
2021/12/05 23:31:49;;;;;;;14.02;3.90;;;19.00;50.40;;;;;;4796251;29;20198;-83
2021/12/05 23:34:15;;;;;;;10.02;3.85;;;19.00;50.40;;;;;;4795813;29;20170;-83
2021/12/05 23:36:48;;;;;;;11.20;3.90;;;19.00;50.30;;;;;;4795834;29;20163;-83
2021/12/05 23:39:15;;;;;;;14.93;3.72;;;19.00;50.30;;;;;;4810535;29;20219;-83
2021/12/05 23:41:41;;;;;;;13.63;3.78;;;19.00;50.50;;;;;;4810453;29;20167;-83
2021/12/05 23:44:07;;;;;;;9.10;3.58;;;18.90;50.60;;;;;;4810580;29;20355;-83
2021/12/05 23:46:33;;;;;;;10.13;4.15;;;18.90;50.40;;;;;;4810362;29;20333;-83
2021/12/05 23:48:58;;;;;;;14.73;4.00;;;18.90;50.60;;;;;;4780898;29;20178;-83
2021/12/05 23:51:28;;;;;;;13.07;3.80;;;18.90;50.60;;;;;;4794861;29;20190;-83
2021/12/05 23:53:55;;;;;;;12.43;3.78;;;18.90;50.30;;;;;;4810451;29;20167;-83
2021/12/05 23:56:21;;;;;;;12.68;3.45;;;18.90;50.60;;;;;;4810465;29;20158;-83
2021/12/05 23:58:47;;;;;;;10.35;3.65;;;18.90;50.60;;;;;;4780981;29;20167;-83
